sensor_id;sensor_type;location;lat;lon;timestamp;temperature;humidity
20700;DHT22;10511;51.232;9.420;2023-12-20T00:02:17;4.50;99.90
20700;DHT22;10511;51.232;9.420;2023-12-20T00:04:44;4.50;99.90
20700;DHT22;10511;51.232;9.420;2023-12-20T00:07:11;4.50;99.90
20700;DHT22;10511;51.232;9.420;2023-12-20T00:09:39;4.50;99.90
20700;DHT22;10511;51.232;9.420;2023-12-20T00:12:06;4.50;99.90
20700;DHT22;10511;51.232;9.420;2023-12-20T00:14:33;4.50;99.90
20700;DHT22;10511;51.232;9.420;2023-12-20T00:17:00;4.50;99.90
20700;DHT22;10511;51.232;9.420;2023-12-20T00:19:27;4.50;99.90
20700;DHT22;10511;51.232;9.420;2023-12-20T00:21:54;4.50;99.90
20700;DHT22;10511;51.232;9.420;2023-12-20T00:24:21;4.60;99.90
20700;DHT22;10511;51.232;9.420;2023-12-20T00:26:49;4.60;99.90
20700;DHT22;10511;51.232;9.420;2023-12-20T00:29:15;4.60;99.90
20700;DHT22;10511;51.232;9.420;2023-12-20T00:31:42;4.60;99.90
20700;DHT22;10511;51.232;9.420;2023-12-20T00:34:09;4.70;99.90
20700;DHT22;10511;51.232;9.420;2023-12-20T00:36:36;4.70;99.90
20700;DHT22;10511;51.232;9.420;2023-12-20T00:39:03;4.70;99.90
20700;DHT22;10511;51.232;9.420;2023-12-20T00:41:30;4.70;99.90
20700;DHT22;10511;51.232;9.420;2023-12-20T00:43:58;4.70;99.90
20700;DHT22;10511;51.232;9.420;2023-12-20T00:46:25;4.70;99.90
20700;DHT22;10511;51.232;9.420;2023-12-20T00:48:52;4.70;99.90
20700;DHT22;10511;51.232;9.420;2023-12-20T00:51:19;4.70;99.90
20700;DHT22;10511;51.232;9.420;2023-12-20T00:53:45;4.80;99.90
20700;DHT22;10511;51.232;9.420;2023-12-20T00:56:14;4.70;99.90
20700;DHT22;10511;51.232;9.420;2023-12-20T00:58:41;4.70;99.90
20700;DHT22;10511;51.232;9.420;2023-12-20T01:01:10;4.70;99.90
20700;DHT22;10511;51.232;9.420;2023-12-20T01:03:36;4.70;99.90
20700;DHT22;10511;51.232;9.420;2023-12-20T01:06:03;4.70;99.90
20700;DHT22;10511;51.232;9.420;2023-12-20T01:08:31;4.70;99.90
20700;DHT22;10511;51.232;9.420;2023-12-20T01:11:00;4.70;99.90
20700;DHT22;10511;51.232;9.420;2023-12-20T01:13:27;4.80;99.90
20700;DHT22;10511;51.232;9.420;2023-12-20T01:15:53;4.80;99.90
20700;DHT22;10511;51.232;9.420;2023-12-20T01:18:22;4.80;99.90
20700;DHT22;10511;51.232;9.420;2023-12-20T01:20:49;4.80;99.90
20700;DHT22;10511;51.232;9.420;2023-12-20T01:23:16;4.80;99.90
20700;DHT22;10511;51.232;9.420;2023-12-20T01:25:43;4.80;99.90
20700;DHT22;10511;51.232;9.420;2023-12-20T01:28:09;4.80;99.90
20700;DHT22;10511;51.232;9.420;2023-12-20T01:30:36;4.80;99.90
20700;DHT22;10511;51.232;9.420;2023-12-20T01:33:03;4.80;99.90
20700;DHT22;10511;51.232;9.420;2023-12-20T01:35:31;4.80;99.90
20700;DHT22;10511;51.232;9.420;2023-12-20T01:37:58;4.80;99.90
20700;DHT22;10511;51.232;9.420;2023-12-20T01:40:25;4.80;99.90
20700;DHT22;10511;51.232;9.420;2023-12-20T01:42:58;4.80;99.90
20700;DHT22;10511;51.232;9.420;2023-12-20T01:45:26;4.80;99.90
20700;DHT22;10511;51.232;9.420;2023-12-20T01:47:53;4.70;99.90
20700;DHT22;10511;51.232;9.420;2023-12-20T01:50:21;4.70;99.90
20700;DHT22;10511;51.232;9.420;2023-12-20T01:52:49;4.70;99.90
20700;DHT22;10511;51.232;9.420;2023-12-20T01:55:18;4.80;99.90
20700;DHT22;10511;51.232;9.420;2023-12-20T01:57:45;4.80;99.90
20700;DHT22;10511;51.232;9.420;2023-12-20T02:00:13;4.80;99.90
20700;DHT22;10511;51.232;9.420;2023-12-20T02:02:41;4.90;99.90
20700;DHT22;10511;51.232;9.420;2023-12-20T02:05:10;4.90;99.90
20700;DHT22;10511;51.232;9.420;2023-12-20T02:07:37;4.90;99.90
20700;DHT22;10511;51.232;9.420;2023-12-20T02:10:06;4.90;99.90
20700;DHT22;10511;51.232;9.420;2023-12-20T02:12:33;4.90;99.90
20700;DHT22;10511;51.232;9.420;2023-12-20T02:15:01;4.90;99.90
20700;DHT22;10511;51.232;9.420;2023-12-20T02:17:28;4.80;99.90
20700;DHT22;10511;51.232;9.420;2023-12-20T02:19:56;4.90;99.90
20700;DHT22;10511;51.232;9.420;2023-12-20T02:22:24;5.00;99.90
20700;DHT22;10511;51.232;9.420;2023-12-20T02:24:51;5.00;99.90
20700;DHT22;10511;51.232;9.420;2023-12-20T02:27:18;5.10;99.90
20700;DHT22;10511;51.232;9.420;2023-12-20T02:29:47;5.00;99.90
20700;DHT22;10511;51.232;9.420;2023-12-20T02:32:14;5.00;99.90
20700;DHT22;10511;51.232;9.420;2023-12-20T02:34:41;4.80;99.90
20700;DHT22;10511;51.232;9.420;2023-12-20T02:37:08;4.70;99.90
20700;DHT22;10511;51.232;9.420;2023-12-20T02:39:36;4.60;99.90
20700;DHT22;10511;51.232;9.420;2023-12-20T02:42:03;4.60;99.90
20700;DHT22;10511;51.232;9.420;2023-12-20T02:44:30;4.60;99.90
20700;DHT22;10511;51.232;9.420;2023-12-20T02:46:57;4.80;99.90
20700;DHT22;10511;51.232;9.420;2023-12-20T02:49:24;4.80;99.90
20700;DHT22;10511;51.232;9.420;2023-12-20T02:51:50;4.90;99.90
20700;DHT22;10511;51.232;9.420;2023-12-20T02:54:17;4.90;99.90
20700;DHT22;10511;51.232;9.420;2023-12-20T02:56:45;4.90;99.90
20700;DHT22;10511;51.232;9.420;2023-12-20T02:59:12;4.90;99.90
20700;DHT22;10511;51.232;9.420;2023-12-20T03:01:42;5.00;99.90
20700;DHT22;10511;51.232;9.420;2023-12-20T03:04:09;5.00;99.90
20700;DHT22;10511;51.232;9.420;2023-12-20T03:06:36;4.90;99.90
20700;DHT22;10511;51.232;9.420;2023-12-20T03:09:03;4.90;99.90
20700;DHT22;10511;51.232;9.420;2023-12-20T03:11:30;4.80;99.90
20700;DHT22;10511;51.232;9.420;2023-12-20T03:13:58;4.80;99.90
20700;DHT22;10511;51.232;9.420;2023-12-20T03:16:25;4.70;99.90
20700;DHT22;10511;51.232;9.420;2023-12-20T03:18:52;4.70;99.90
20700;DHT22;10511;51.232;9.420;2023-12-20T03:21:19;4.70;99.90
20700;DHT22;10511;51.232;9.420;2023-12-20T03:23:46;4.70;99.90
20700;DHT22;10511;51.232;9.420;2023-12-20T03:26:13;4.70;99.90
20700;DHT22;10511;51.232;9.420;2023-12-20T03:28:39;4.70;99.90
20700;DHT22;10511;51.232;9.420;2023-12-20T03:31:09;4.70;99.90
20700;DHT22;10511;51.232;9.420;2023-12-20T03:33:36;4.70;99.90
20700;DHT22;10511;51.232;9.420;2023-12-20T03:36:03;4.80;99.90
20700;DHT22;10511;51.232;9.420;2023-12-20T03:38:30;5.00;99.90
20700;DHT22;10511;51.232;9.420;2023-12-20T03:40:56;5.00;99.90
20700;DHT22;10511;51.232;9.420;2023-12-20T03:43:23;5.00;99.90
20700;DHT22;10511;51.232;9.420;2023-12-20T03:45:50;5.10;99.90
20700;DHT22;10511;51.232;9.420;2023-12-20T03:48:18;5.10;99.90
20700;DHT22;10511;51.232;9.420;2023-12-20T03:50:45;5.10;99.90
20700;DHT22;10511;51.232;9.420;2023-12-20T03:53:12;5.20;99.90
20700;DHT22;10511;51.232;9.420;2023-12-20T03:55:39;5.30;99.90
20700;DHT22;10511;51.232;9.420;2023-12-20T03:58:06;5.30;99.90
20700;DHT22;10511;51.232;9.420;2023-12-20T04:00:33;5.30;99.90
20700;DHT22;10511;51.232;9.420;2023-12-20T04:03:00;5.30;99.90
20700;DHT22;10511;51.232;9.420;2023-12-20T04:05:28;5.30;99.90
20700;DHT22;10511;51.232;9.420;2023-12-20T04:07:55;5.30;99.90
20700;DHT22;10511;51.232;9.420;2023-12-20T04:10:21;5.30;99.90
20700;DHT22;10511;51.232;9.420;2023-12-20T04:12:48;5.30;99.90
20700;DHT22;10511;51.232;9.420;2023-12-20T04:15:15;5.30;99.90
20700;DHT22;10511;51.232;9.420;2023-12-20T04:17:42;5.40;99.90
20700;DHT22;10511;51.232;9.420;2023-12-20T04:20:09;5.30;99.90
20700;DHT22;10511;51.232;9.420;2023-12-20T04:22:37;5.40;99.90
20700;DHT22;10511;51.232;9.420;2023-12-20T04:25:05;5.40;99.90
20700;DHT22;10511;51.232;9.420;2023-12-20T04:27:32;5.30;99.90
20700;DHT22;10511;51.232;9.420;2023-12-20T04:29:58;5.30;99.90
20700;DHT22;10511;51.232;9.420;2023-12-20T04:32:25;5.30;99.90
20700;DHT22;10511;51.232;9.420;2023-12-20T04:34:52;5.30;99.90
20700;DHT22;10511;51.232;9.420;2023-12-20T04:37:19;5.30;99.90
20700;DHT22;10511;51.232;9.420;2023-12-20T04:39:47;5.30;99.90
20700;DHT22;10511;51.232;9.420;2023-12-20T04:42:14;5.30;99.90
20700;DHT22;10511;51.232;9.420;2023-12-20T04:44:41;5.30;99.90
20700;DHT22;10511;51.232;9.420;2023-12-20T04:47:09;5.30;99.90
20700;DHT22;10511;51.232;9.420;2023-12-20T04:49:36;5.30;99.90
20700;DHT22;10511;51.232;9.420;2023-12-20T04:52:03;5.30;99.90
20700;DHT22;10511;51.232;9.420;2023-12-20T04:54:30;5.30;99.90
20700;DHT22;10511;51.232;9.420;2023-12-20T04:56:58;5.30;99.90
20700;DHT22;10511;51.232;9.420;2023-12-20T04:59:25;5.20;99.90
20700;DHT22;10511;51.232;9.420;2023-12-20T05:01:52;5.20;99.90
20700;DHT22;10511;51.232;9.420;2023-12-20T05:04:18;5.20;99.90
20700;DHT22;10511;51.232;9.420;2023-12-20T05:06:46;5.20;99.90
20700;DHT22;10511;51.232;9.420;2023-12-20T05:09:12;5.20;99.90
20700;DHT22;10511;51.232;9.420;2023-12-20T05:11:39;5.20;99.90
20700;DHT22;10511;51.232;9.420;2023-12-20T05:14:07;5.20;99.90
20700;DHT22;10511;51.232;9.420;2023-12-20T05:16:34;5.30;99.90
20700;DHT22;10511;51.232;9.420;2023-12-20T05:19:01;5.30;99.90
20700;DHT22;10511;51.232;9.420;2023-12-20T05:21:32;5.30;99.90
20700;DHT22;10511;51.232;9.420;2023-12-20T05:23:59;5.20;99.90
20700;DHT22;10511;51.232;9.420;2023-12-20T05:26:26;5.20;99.90
20700;DHT22;10511;51.232;9.420;2023-12-20T05:28:53;5.10;99.90
20700;DHT22;10511;51.232;9.420;2023-12-20T05:31:21;5.10;99.90
20700;DHT22;10511;51.232;9.420;2023-12-20T05:33:48;5.10;99.90
20700;DHT22;10511;51.232;9.420;2023-12-20T05:36:15;5.10;99.90
20700;DHT22;10511;51.232;9.420;2023-12-20T05:38:42;5.00;99.90
20700;DHT22;10511;51.232;9.420;2023-12-20T05:41:09;5.00;99.90
20700;DHT22;10511;51.232;9.420;2023-12-20T05:43:36;5.00;99.90
20700;DHT22;10511;51.232;9.420;2023-12-20T05:46:03;5.00;99.90
20700;DHT22;10511;51.232;9.420;2023-12-20T05:48:31;5.00;99.90
20700;DHT22;10511;51.232;9.420;2023-12-20T05:50:58;5.00;99.90
20700;DHT22;10511;51.232;9.420;2023-12-20T05:53:24;4.90;99.90
20700;DHT22;10511;51.232;9.420;2023-12-20T05:55:51;4.90;99.90
20700;DHT22;10511;51.232;9.420;2023-12-20T05:58:18;4.90;99.90
20700;DHT22;10511;51.232;9.420;2023-12-20T06:00:45;5.00;99.90
20700;DHT22;10511;51.232;9.420;2023-12-20T06:03:12;5.00;99.90
20700;DHT22;10511;51.232;9.420;2023-12-20T06:05:40;5.00;99.90
20700;DHT22;10511;51.232;9.420;2023-12-20T06:08:07;5.00;99.90
20700;DHT22;10511;51.232;9.420;2023-12-20T06:10:33;5.00;99.90
20700;DHT22;10511;51.232;9.420;2023-12-20T06:13:00;5.00;99.90
20700;DHT22;10511;51.232;9.420;2023-12-20T06:15:27;5.00;99.90
20700;DHT22;10511;51.232;9.420;2023-12-20T06:17:54;5.00;99.90
20700;DHT22;10511;51.232;9.420;2023-12-20T06:20:21;5.00;99.90
20700;DHT22;10511;51.232;9.420;2023-12-20T06:22:49;4.90;99.90
20700;DHT22;10511;51.232;9.420;2023-12-20T06:25:16;4.90;99.90
20700;DHT22;10511;51.232;9.420;2023-12-20T06:27:42;4.90;99.90
20700;DHT22;10511;51.232;9.420;2023-12-20T06:30:10;4.90;99.90
20700;DHT22;10511;51.232;9.420;2023-12-20T06:32:37;4.90;99.90
20700;DHT22;10511;51.232;9.420;2023-12-20T06:35:06;4.90;99.90
20700;DHT22;10511;51.232;9.420;2023-12-20T06:37:33;4.90;99.90
20700;DHT22;10511;51.232;9.420;2023-12-20T06:40:01;4.90;99.90
20700;DHT22;10511;51.232;9.420;2023-12-20T06:42:28;4.90;99.90
20700;DHT22;10511;51.232;9.420;2023-12-20T06:44:55;5.00;99.90
20700;DHT22;10511;51.232;9.420;2023-12-20T06:47:21;4.90;99.90
20700;DHT22;10511;51.232;9.420;2023-12-20T06:49:48;4.90;99.90
20700;DHT22;10511;51.232;9.420;2023-12-20T06:52:15;4.90;99.90
20700;DHT22;10511;51.232;9.420;2023-12-20T06:54:42;4.90;99.90
20700;DHT22;10511;51.232;9.420;2023-12-20T06:57:10;5.00;99.90
20700;DHT22;10511;51.232;9.420;2023-12-20T06:59:38;4.90;99.90
20700;DHT22;10511;51.232;9.420;2023-12-20T07:02:06;4.90;99.90
20700;DHT22;10511;51.232;9.420;2023-12-20T07:04:33;4.90;99.90
20700;DHT22;10511;51.232;9.420;2023-12-20T07:06:59;4.90;99.90
20700;DHT22;10511;51.232;9.420;2023-12-20T07:09:26;4.90;99.90
20700;DHT22;10511;51.232;9.420;2023-12-20T07:11:53;4.90;99.90
20700;DHT22;10511;51.232;9.420;2023-12-20T07:14:21;4.90;99.90
20700;DHT22;10511;51.232;9.420;2023-12-20T07:16:48;4.90;99.90
20700;DHT22;10511;51.232;9.420;2023-12-20T07:19:15;4.90;99.90
20700;DHT22;10511;51.232;9.420;2023-12-20T07:21:42;4.90;99.90
20700;DHT22;10511;51.232;9.420;2023-12-20T07:24:08;4.90;99.90
20700;DHT22;10511;51.232;9.420;2023-12-20T07:26:35;4.90;99.90
20700;DHT22;10511;51.232;9.420;2023-12-20T07:29:03;4.90;99.90
20700;DHT22;10511;51.232;9.420;2023-12-20T07:31:31;4.80;99.90
20700;DHT22;10511;51.232;9.420;2023-12-20T07:33:58;4.80;99.90
20700;DHT22;10511;51.232;9.420;2023-12-20T07:36:25;4.80;99.90
20700;DHT22;10511;51.232;9.420;2023-12-20T07:38:51;4.80;99.90
20700;DHT22;10511;51.232;9.420;2023-12-20T07:41:18;4.90;99.90
20700;DHT22;10511;51.232;9.420;2023-12-20T07:43:46;4.90;99.90
20700;DHT22;10511;51.232;9.420;2023-12-20T07:46:13;4.90;99.90
20700;DHT22;10511;51.232;9.420;2023-12-20T07:48:41;4.90;99.90
20700;DHT22;10511;51.232;9.420;2023-12-20T07:51:08;4.90;99.90
20700;DHT22;10511;51.232;9.420;2023-12-20T07:53:35;4.90;99.90
20700;DHT22;10511;51.232;9.420;2023-12-20T07:56:13;4.80;99.90
20700;DHT22;10511;51.232;9.420;2023-12-20T07:58:40;4.80;99.90
20700;DHT22;10511;51.232;9.420;2023-12-20T08:01:06;4.80;99.90
20700;DHT22;10511;51.232;9.420;2023-12-20T08:03:33;4.70;99.90
20700;DHT22;10511;51.232;9.420;2023-12-20T08:06:02;4.70;99.90
20700;DHT22;10511;51.232;9.420;2023-12-20T08:08:29;4.70;99.90
20700;DHT22;10511;51.232;9.420;2023-12-20T08:10:56;4.70;99.90
20700;DHT22;10511;51.232;9.420;2023-12-20T08:13:25;4.70;99.90
20700;DHT22;10511;51.232;9.420;2023-12-20T08:15:52;4.70;99.90
20700;DHT22;10511;51.232;9.420;2023-12-20T08:18:19;4.70;99.90
20700;DHT22;10511;51.232;9.420;2023-12-20T08:20:46;4.70;99.90
20700;DHT22;10511;51.232;9.420;2023-12-20T08:23:15;4.60;99.90
20700;DHT22;10511;51.232;9.420;2023-12-20T08:25:42;4.60;99.90
20700;DHT22;10511;51.232;9.420;2023-12-20T08:28:09;4.70;99.90
20700;DHT22;10511;51.232;9.420;2023-12-20T08:30:36;4.60;99.90
20700;DHT22;10511;51.232;9.420;2023-12-20T08:33:03;4.60;99.90
20700;DHT22;10511;51.232;9.420;2023-12-20T08:35:30;4.60;99.90
20700;DHT22;10511;51.232;9.420;2023-12-20T08:37:57;4.60;99.90
20700;DHT22;10511;51.232;9.420;2023-12-20T08:40:25;4.60;99.90
20700;DHT22;10511;51.232;9.420;2023-12-20T08:42:52;4.60;99.90
20700;DHT22;10511;51.232;9.420;2023-12-20T08:45:18;4.60;99.90
20700;DHT22;10511;51.232;9.420;2023-12-20T08:47:45;4.70;99.90
20700;DHT22;10511;51.232;9.420;2023-12-20T08:50:12;4.60;99.90
20700;DHT22;10511;51.232;9.420;2023-12-20T08:52:40;4.60;99.90
20700;DHT22;10511;51.232;9.420;2023-12-20T08:55:08;4.60;99.90
20700;DHT22;10511;51.232;9.420;2023-12-20T08:57:36;4.60;99.90
20700;DHT22;10511;51.232;9.420;2023-12-20T09:00:04;4.60;99.90
20700;DHT22;10511;51.232;9.420;2023-12-20T09:02:33;4.60;99.90
20700;DHT22;10511;51.232;9.420;2023-12-20T09:05:01;4.70;99.90
20700;DHT22;10511;51.232;9.420;2023-12-20T09:07:29;4.70;99.90
20700;DHT22;10511;51.232;9.420;2023-12-20T09:09:57;4.70;99.90
20700;DHT22;10511;51.232;9.420;2023-12-20T09:12:25;4.80;99.90
20700;DHT22;10511;51.232;9.420;2023-12-20T09:14:53;4.80;99.90
20700;DHT22;10511;51.232;9.420;2023-12-20T09:17:20;4.80;99.90
20700;DHT22;10511;51.232;9.420;2023-12-20T09:19:48;4.80;99.90
20700;DHT22;10511;51.232;9.420;2023-12-20T09:22:15;4.90;99.90
20700;DHT22;10511;51.232;9.420;2023-12-20T09:24:43;5.00;99.90
20700;DHT22;10511;51.232;9.420;2023-12-20T09:27:10;4.90;99.90
20700;DHT22;10511;51.232;9.420;2023-12-20T09:29:37;4.90;99.90
20700;DHT22;10511;51.232;9.420;2023-12-20T09:32:05;5.00;99.90
20700;DHT22;10511;51.232;9.420;2023-12-20T09:34:33;5.00;99.90
20700;DHT22;10511;51.232;9.420;2023-12-20T09:37:00;5.10;99.90
20700;DHT22;10511;51.232;9.420;2023-12-20T09:39:26;5.10;99.90
20700;DHT22;10511;51.232;9.420;2023-12-20T09:42:00;5.10;99.90
20700;DHT22;10511;51.232;9.420;2023-12-20T09:44:28;5.20;99.90
20700;DHT22;10511;51.232;9.420;2023-12-20T09:46:55;5.20;99.90
20700;DHT22;10511;51.232;9.420;2023-12-20T09:49:24;5.20;99.90
20700;DHT22;10511;51.232;9.420;2023-12-20T09:51:52;5.30;99.90
20700;DHT22;10511;51.232;9.420;2023-12-20T09:54:20;5.30;99.90
20700;DHT22;10511;51.232;9.420;2023-12-20T09:56:48;5.30;99.90
20700;DHT22;10511;51.232;9.420;2023-12-20T09:59:15;5.30;99.90
20700;DHT22;10511;51.232;9.420;2023-12-20T10:01:43;5.30;99.90
20700;DHT22;10511;51.232;9.420;2023-12-20T10:04:12;5.40;99.90
20700;DHT22;10511;51.232;9.420;2023-12-20T10:06:41;5.40;99.90
20700;DHT22;10511;51.232;9.420;2023-12-20T10:09:08;5.40;99.90
20700;DHT22;10511;51.232;9.420;2023-12-20T10:11:36;5.50;99.90
20700;DHT22;10511;51.232;9.420;2023-12-20T10:14:04;5.50;99.90
20700;DHT22;10511;51.232;9.420;2023-12-20T10:16:32;5.50;99.90
20700;DHT22;10511;51.232;9.420;2023-12-20T10:19:00;5.50;99.90
20700;DHT22;10511;51.232;9.420;2023-12-20T10:21:28;5.50;99.90
20700;DHT22;10511;51.232;9.420;2023-12-20T10:23:56;5.50;99.90
20700;DHT22;10511;51.232;9.420;2023-12-20T10:26:25;5.50;99.90
20700;DHT22;10511;51.232;9.420;2023-12-20T10:28:54;5.50;99.90
20700;DHT22;10511;51.232;9.420;2023-12-20T10:31:29;5.50;99.90
20700;DHT22;10511;51.232;9.420;2023-12-20T10:33:56;5.50;99.90
20700;DHT22;10511;51.232;9.420;2023-12-20T10:36:25;5.50;99.90
20700;DHT22;10511;51.232;9.420;2023-12-20T10:38:54;5.50;99.90
20700;DHT22;10511;51.232;9.420;2023-12-20T10:41:25;5.50;99.90
20700;DHT22;10511;51.232;9.420;2023-12-20T10:43:55;5.50;99.90
20700;DHT22;10511;51.232;9.420;2023-12-20T10:46:22;5.50;99.90
20700;DHT22;10511;51.232;9.420;2023-12-20T10:48:53;5.50;99.90
20700;DHT22;10511;51.232;9.420;2023-12-20T10:51:21;5.50;99.90
20700;DHT22;10511;51.232;9.420;2023-12-20T10:53:49;5.40;99.90
20700;DHT22;10511;51.232;9.420;2023-12-20T10:56:17;5.40;99.90
20700;DHT22;10511;51.232;9.420;2023-12-20T10:58:47;5.40;99.90
20700;DHT22;10511;51.232;9.420;2023-12-20T11:01:15;5.40;99.90
20700;DHT22;10511;51.232;9.420;2023-12-20T11:03:46;5.40;99.90
20700;DHT22;10511;51.232;9.420;2023-12-20T11:06:22;5.40;99.90
20700;DHT22;10511;51.232;9.420;2023-12-20T11:08:58;5.40;99.90
20700;DHT22;10511;51.232;9.420;2023-12-20T11:11:37;5.40;99.90
20700;DHT22;10511;51.232;9.420;2023-12-20T11:14:08;5.40;99.90
20700;DHT22;10511;51.232;9.420;2023-12-20T11:16:38;5.30;99.90
20700;DHT22;10511;51.232;9.420;2023-12-20T11:19:05;5.40;99.90
20700;DHT22;10511;51.232;9.420;2023-12-20T11:21:32;5.30;99.90
20700;DHT22;10511;51.232;9.420;2023-12-20T11:23:59;5.30;99.90
20700;DHT22;10511;51.232;9.420;2023-12-20T11:26:27;5.30;99.90
20700;DHT22;10511;51.232;9.420;2023-12-20T11:28:56;5.30;99.90
20700;DHT22;10511;51.232;9.420;2023-12-20T11:31:44;5.30;99.90
20700;DHT22;10511;51.232;9.420;2023-12-20T11:34:13;5.30;99.90
20700;DHT22;10511;51.232;9.420;2023-12-20T11:36:40;5.30;99.90
20700;DHT22;10511;51.232;9.420;2023-12-20T11:39:07;5.30;99.90
20700;DHT22;10511;51.232;9.420;2023-12-20T11:41:38;5.30;99.90
20700;DHT22;10511;51.232;9.420;2023-12-20T11:44:05;5.30;99.90
20700;DHT22;10511;51.232;9.420;2023-12-20T11:46:32;5.40;99.90
20700;DHT22;10511;51.232;9.420;2023-12-20T11:49:00;5.30;99.90
20700;DHT22;10511;51.232;9.420;2023-12-20T11:51:28;5.40;99.90
20700;DHT22;10511;51.232;9.420;2023-12-20T11:53:55;5.30;99.90
20700;DHT22;10511;51.232;9.420;2023-12-20T11:56:22;5.40;99.90
20700;DHT22;10511;51.232;9.420;2023-12-20T11:58:49;5.30;99.90
20700;DHT22;10511;51.232;9.420;2023-12-20T12:01:16;5.40;99.90
20700;DHT22;10511;51.232;9.420;2023-12-20T12:03:43;5.40;99.90
20700;DHT22;10511;51.232;9.420;2023-12-20T12:06:12;5.40;99.90
20700;DHT22;10511;51.232;9.420;2023-12-20T12:08:39;5.30;99.90
20700;DHT22;10511;51.232;9.420;2023-12-20T12:11:06;5.40;99.90
20700;DHT22;10511;51.232;9.420;2023-12-20T12:13:33;5.40;99.90
20700;DHT22;10511;51.232;9.420;2023-12-20T12:16:00;5.40;99.90
20700;DHT22;10511;51.232;9.420;2023-12-20T12:18:27;5.40;99.90
20700;DHT22;10511;51.232;9.420;2023-12-20T12:21:00;5.40;99.90
20700;DHT22;10511;51.232;9.420;2023-12-20T12:23:29;5.40;99.90
20700;DHT22;10511;51.232;9.420;2023-12-20T12:25:56;5.50;99.90
20700;DHT22;10511;51.232;9.420;2023-12-20T12:28:26;5.50;99.90
20700;DHT22;10511;51.232;9.420;2023-12-20T12:30:57;5.50;99.90
20700;DHT22;10511;51.232;9.420;2023-12-20T12:33:24;5.50;99.90
20700;DHT22;10511;51.232;9.420;2023-12-20T12:35:51;5.50;99.90
20700;DHT22;10511;51.232;9.420;2023-12-20T12:38:20;5.50;99.90
20700;DHT22;10511;51.232;9.420;2023-12-20T12:40:49;5.40;99.90
20700;DHT22;10511;51.232;9.420;2023-12-20T12:43:16;5.40;99.90
20700;DHT22;10511;51.232;9.420;2023-12-20T12:45:43;5.40;99.90
20700;DHT22;10511;51.232;9.420;2023-12-20T12:48:10;5.50;99.90
20700;DHT22;10511;51.232;9.420;2023-12-20T12:50:37;5.50;99.90
20700;DHT22;10511;51.232;9.420;2023-12-20T12:53:04;5.50;99.90
20700;DHT22;10511;51.232;9.420;2023-12-20T12:55:30;5.50;99.90
20700;DHT22;10511;51.232;9.420;2023-12-20T12:57:59;5.50;99.90
20700;DHT22;10511;51.232;9.420;2023-12-20T13:00:26;5.50;99.90
20700;DHT22;10511;51.232;9.420;2023-12-20T13:02:53;5.50;99.90
20700;DHT22;10511;51.232;9.420;2023-12-20T13:05:20;5.50;99.90
20700;DHT22;10511;51.232;9.420;2023-12-20T13:07:47;5.50;99.90
20700;DHT22;10511;51.232;9.420;2023-12-20T13:10:13;5.40;99.90
20700;DHT22;10511;51.232;9.420;2023-12-20T13:12:42;5.40;99.90
20700;DHT22;10511;51.232;9.420;2023-12-20T13:15:10;5.40;99.90
20700;DHT22;10511;51.232;9.420;2023-12-20T13:17:37;5.40;99.90
20700;DHT22;10511;51.232;9.420;2023-12-20T13:20:04;5.50;99.90
20700;DHT22;10511;51.232;9.420;2023-12-20T13:22:32;5.40;99.90
20700;DHT22;10511;51.232;9.420;2023-12-20T13:24:58;5.50;99.90
20700;DHT22;10511;51.232;9.420;2023-12-20T13:27:25;5.50;99.90
20700;DHT22;10511;51.232;9.420;2023-12-20T13:29:52;5.50;99.90
20700;DHT22;10511;51.232;9.420;2023-12-20T13:32:20;5.50;99.90
20700;DHT22;10511;51.232;9.420;2023-12-20T13:34:47;5.40;99.90
20700;DHT22;10511;51.232;9.420;2023-12-20T13:37:15;5.40;99.90
20700;DHT22;10511;51.232;9.420;2023-12-20T13:39:42;5.40;99.90
20700;DHT22;10511;51.232;9.420;2023-12-20T13:42:09;5.40;99.90
20700;DHT22;10511;51.232;9.420;2023-12-20T13:44:35;5.40;99.90
20700;DHT22;10511;51.232;9.420;2023-12-20T13:47:03;5.40;99.90
20700;DHT22;10511;51.232;9.420;2023-12-20T13:49:31;5.50;99.90
20700;DHT22;10511;51.232;9.420;2023-12-20T13:51:58;5.40;99.90
20700;DHT22;10511;51.232;9.420;2023-12-20T13:54:25;5.40;99.90
20700;DHT22;10511;51.232;9.420;2023-12-20T13:56:54;5.40;99.90
20700;DHT22;10511;51.232;9.420;2023-12-20T13:59:24;5.40;99.90
20700;DHT22;10511;51.232;9.420;2023-12-20T14:01:51;5.40;99.90
20700;DHT22;10511;51.232;9.420;2023-12-20T14:04:19;5.40;99.90
20700;DHT22;10511;51.232;9.420;2023-12-20T14:06:48;5.40;99.90
20700;DHT22;10511;51.232;9.420;2023-12-20T14:09:15;5.40;99.90
20700;DHT22;10511;51.232;9.420;2023-12-20T14:11:42;5.40;99.90
20700;DHT22;10511;51.232;9.420;2023-12-20T14:14:09;5.40;99.90
20700;DHT22;10511;51.232;9.420;2023-12-20T14:16:36;5.50;99.90
20700;DHT22;10511;51.232;9.420;2023-12-20T14:19:03;5.50;99.90
20700;DHT22;10511;51.232;9.420;2023-12-20T14:21:32;5.40;99.90
20700;DHT22;10511;51.232;9.420;2023-12-20T14:24:00;5.40;99.90
20700;DHT22;10511;51.232;9.420;2023-12-20T14:26:29;5.40;99.90
20700;DHT22;10511;51.232;9.420;2023-12-20T14:28:56;5.40;99.90
20700;DHT22;10511;51.232;9.420;2023-12-20T14:31:23;5.50;99.90
20700;DHT22;10511;51.232;9.420;2023-12-20T14:33:50;5.50;99.90
20700;DHT22;10511;51.232;9.420;2023-12-20T14:36:18;5.40;99.90
20700;DHT22;10511;51.232;9.420;2023-12-20T14:38:45;5.50;99.90
20700;DHT22;10511;51.232;9.420;2023-12-20T14:41:14;5.50;99.90
20700;DHT22;10511;51.232;9.420;2023-12-20T14:43:40;5.40;99.90
20700;DHT22;10511;51.232;9.420;2023-12-20T14:46:07;5.40;99.90
20700;DHT22;10511;51.232;9.420;2023-12-20T14:48:35;5.40;99.90
20700;DHT22;10511;51.232;9.420;2023-12-20T14:51:03;5.40;99.90
20700;DHT22;10511;51.232;9.420;2023-12-20T14:53:30;5.40;99.90
20700;DHT22;10511;51.232;9.420;2023-12-20T14:55:57;5.40;99.90
20700;DHT22;10511;51.232;9.420;2023-12-20T14:58:25;5.40;99.90
20700;DHT22;10511;51.232;9.420;2023-12-20T15:00:52;5.40;99.90
20700;DHT22;10511;51.232;9.420;2023-12-20T15:03:19;5.40;99.90
20700;DHT22;10511;51.232;9.420;2023-12-20T15:05:45;5.50;99.90
20700;DHT22;10511;51.232;9.420;2023-12-20T15:08:13;5.50;99.90
20700;DHT22;10511;51.232;9.420;2023-12-20T15:10:40;5.50;99.90
20700;DHT22;10511;51.232;9.420;2023-12-20T15:13:07;5.50;99.90
20700;DHT22;10511;51.232;9.420;2023-12-20T15:15:36;5.50;99.90
20700;DHT22;10511;51.232;9.420;2023-12-20T15:18:03;5.50;99.90
20700;DHT22;10511;51.232;9.420;2023-12-20T15:20:30;5.40;99.90
20700;DHT22;10511;51.232;9.420;2023-12-20T15:22:59;5.50;99.90
20700;DHT22;10511;51.232;9.420;2023-12-20T15:25:30;5.50;99.90
20700;DHT22;10511;51.232;9.420;2023-12-20T15:27:57;5.50;99.90
20700;DHT22;10511;51.232;9.420;2023-12-20T15:30:24;5.50;99.90
20700;DHT22;10511;51.232;9.420;2023-12-20T15:32:52;5.50;99.90
20700;DHT22;10511;51.232;9.420;2023-12-20T15:35:19;5.50;99.90
20700;DHT22;10511;51.232;9.420;2023-12-20T15:37:46;5.50;99.90
20700;DHT22;10511;51.232;9.420;2023-12-20T15:40:12;5.60;99.90
20700;DHT22;10511;51.232;9.420;2023-12-20T15:42:40;5.60;99.90
20700;DHT22;10511;51.232;9.420;2023-12-20T15:45:07;5.60;99.90
20700;DHT22;10511;51.232;9.420;2023-12-20T15:47:34;5.60;99.90